Terminal Aerodrome Forecast
Issued by NWS Charleston, WV

Current Version | Previous Version | Graphics & Text | Print | Product List | Glossary On
Versions: 1 2 3 4 5 6 7 8 9 10 11 12 13 14 15 16 17 18 19 20 21 22 23 24
000
FTUS41 KRLX 280700 AAA
TAFCRW
TAF AMD
KCRW 280757Z 2808/2906 00000KT 4SM BR SCT001
     FM281000 VRB03KT 1/2SM FG VV001
     FM281200 VRB03KT 3SM BR SCT001
     FM281400 18003KT P6SM SCT200
     FM281800 00000KT P6SM SCT045 SCT200=

USA.gov is the U.S. government's official web portal to all federal, state and local government web resources and services.